sensor_id;sensor_type;location;lat;lon;timestamp;P1;durP1;ratioP1;P2;durP2;ratioP2
12214;SDS011;6170;42.206;24.142;2023-04-03T00:02:14;6.15;;;1.73;;
12214;SDS011;6170;42.206;24.142;2023-04-03T00:04:41;4.53;;;1.75;;
12214;SDS011;6170;42.206;24.142;2023-04-03T00:07:09;3.88;;;2.00;;
12214;SDS011;6170;42.206;24.142;2023-04-03T00:09:37;2.92;;;1.48;;
12214;SDS011;6170;42.206;24.142;2023-04-03T00:12:04;2.58;;;1.45;;
12214;SDS011;6170;42.206;24.142;2023-04-03T00:14:31;3.03;;;1.48;;
12214;SDS011;6170;42.206;24.142;2023-04-03T00:16:58;4.07;;;1.90;;
12214;SDS011;6170;42.206;24.142;2023-04-03T00:19:25;2.53;;;1.67;;
12214;SDS011;6170;42.206;24.142;2023-04-03T00:21:52;8.80;;;1.63;;
12214;SDS011;6170;42.206;24.142;2023-04-03T00:24:21;3.63;;;1.73;;
12214;SDS011;6170;42.206;24.142;2023-04-03T00:26:48;3.13;;;1.80;;
12214;SDS011;6170;42.206;24.142;2023-04-03T00:29:15;3.28;;;1.55;;
12214;SDS011;6170;42.206;24.142;2023-04-03T00:31:42;1.80;;;1.30;;
12214;SDS011;6170;42.206;24.142;2023-04-03T00:34:09;2.25;;;1.40;;
12214;SDS011;6170;42.206;24.142;2023-04-03T00:36:36;2.65;;;1.50;;
12214;SDS011;6170;42.206;24.142;2023-04-03T00:39:03;2.75;;;1.63;;
12214;SDS011;6170;42.206;24.142;2023-04-03T00:41:32;6.30;;;1.70;;
12214;SDS011;6170;42.206;24.142;2023-04-03T00:44:00;2.78;;;1.50;;
12214;SDS011;6170;42.206;24.142;2023-04-03T00:46:27;2.70;;;1.80;;
12214;SDS011;6170;42.206;24.142;2023-04-03T00:48:54;3.35;;;1.73;;
12214;SDS011;6170;42.206;24.142;2023-04-03T00:51:22;4.68;;;1.92;;
12214;SDS011;6170;42.206;24.142;2023-04-03T00:53:52;4.88;;;1.83;;
12214;SDS011;6170;42.206;24.142;2023-04-03T00:56:23;2.78;;;1.55;;
12214;SDS011;6170;42.206;24.142;2023-04-03T00:58:53;4.57;;;1.90;;
12214;SDS011;6170;42.206;24.142;2023-04-03T01:01:23;4.53;;;1.73;;
12214;SDS011;6170;42.206;24.142;2023-04-03T01:03:52;3.28;;;1.25;;
12214;SDS011;6170;42.206;24.142;2023-04-03T01:06:20;2.78;;;1.63;;
12214;SDS011;6170;42.206;24.142;2023-04-03T01:08:51;2.50;;;1.45;;
12214;SDS011;6170;42.206;24.142;2023-04-03T01:11:19;2.95;;;1.40;;
12214;SDS011;6170;42.206;24.142;2023-04-03T01:13:46;4.43;;;1.52;;
12214;SDS011;6170;42.206;24.142;2023-04-03T01:16:15;3.33;;;1.67;;
12214;SDS011;6170;42.206;24.142;2023-04-03T01:18:43;7.18;;;1.83;;
12214;SDS011;6170;42.206;24.142;2023-04-03T01:21:19;3.97;;;1.80;;
12214;SDS011;6170;42.206;24.142;2023-04-03T01:26:59;3.85;;;1.70;;
12214;SDS011;6170;42.206;24.142;2023-04-03T01:29:29;3.17;;;1.80;;
12214;SDS011;6170;42.206;24.142;2023-04-03T01:31:58;2.90;;;1.40;;
12214;SDS011;6170;42.206;24.142;2023-04-03T01:34:27;4.95;;;2.30;;
12214;SDS011;6170;42.206;24.142;2023-04-03T01:36:55;5.22;;;2.30;;
12214;SDS011;6170;42.206;24.142;2023-04-03T01:39:22;5.00;;;1.90;;
12214;SDS011;6170;42.206;24.142;2023-04-03T01:41:50;5.35;;;2.03;;
12214;SDS011;6170;42.206;24.142;2023-04-03T01:44:17;3.80;;;1.80;;
12214;SDS011;6170;42.206;24.142;2023-04-03T01:46:44;2.90;;;1.65;;
12214;SDS011;6170;42.206;24.142;2023-04-03T01:49:13;2.85;;;1.98;;
12214;SDS011;6170;42.206;24.142;2023-04-03T01:51:40;4.50;;;2.03;;
12214;SDS011;6170;42.206;24.142;2023-04-03T01:54:07;3.90;;;1.67;;
12214;SDS011;6170;42.206;24.142;2023-04-03T01:56:34;3.03;;;1.40;;
12214;SDS011;6170;42.206;24.142;2023-04-03T01:59:01;2.92;;;1.60;;
12214;SDS011;6170;42.206;24.142;2023-04-03T02:01:28;2.72;;;1.63;;
12214;SDS011;6170;42.206;24.142;2023-04-03T02:03:55;3.25;;;1.42;;
12214;SDS011;6170;42.206;24.142;2023-04-03T02:06:23;3.63;;;1.85;;
12214;SDS011;6170;42.206;24.142;2023-04-03T02:08:51;2.90;;;1.52;;
12214;SDS011;6170;42.206;24.142;2023-04-03T02:11:18;2.58;;;1.65;;
12214;SDS011;6170;42.206;24.142;2023-04-03T02:13:45;2.83;;;1.50;;
12214;SDS011;6170;42.206;24.142;2023-04-03T02:16:12;4.75;;;1.52;;
12214;SDS011;6170;42.206;24.142;2023-04-03T02:18:39;2.53;;;1.40;;
12214;SDS011;6170;42.206;24.142;2023-04-03T02:21:06;3.40;;;1.60;;
12214;SDS011;6170;42.206;24.142;2023-04-03T02:23:34;1.83;;;1.50;;
12214;SDS011;6170;42.206;24.142;2023-04-03T02:26:05;2.75;;;1.60;;
12214;SDS011;6170;42.206;24.142;2023-04-03T02:28:34;2.92;;;1.50;;
12214;SDS011;6170;42.206;24.142;2023-04-03T02:31:01;2.00;;;1.38;;
12214;SDS011;6170;42.206;24.142;2023-04-03T02:33:29;2.45;;;1.35;;
12214;SDS011;6170;42.206;24.142;2023-04-03T02:35:56;2.45;;;1.60;;
12214;SDS011;6170;42.206;24.142;2023-04-03T02:38:23;5.28;;;1.55;;
12214;SDS011;6170;42.206;24.142;2023-04-03T02:40:52;3.42;;;1.70;;
12214;SDS011;6170;42.206;24.142;2023-04-03T02:43:20;2.83;;;1.45;;
12214;SDS011;6170;42.206;24.142;2023-04-03T02:45:47;2.55;;;1.52;;
12214;SDS011;6170;42.206;24.142;2023-04-03T02:48:14;4.00;;;1.80;;
12214;SDS011;6170;42.206;24.142;2023-04-03T02:50:41;5.38;;;1.50;;
12214;SDS011;6170;42.206;24.142;2023-04-03T02:53:08;3.55;;;1.75;;
12214;SDS011;6170;42.206;24.142;2023-04-03T02:55:36;3.75;;;1.83;;
12214;SDS011;6170;42.206;24.142;2023-04-03T02:58:04;3.22;;;2.08;;
12214;SDS011;6170;42.206;24.142;2023-04-03T03:00:31;4.03;;;1.80;;
12214;SDS011;6170;42.206;24.142;2023-04-03T03:02:58;4.25;;;1.90;;
12214;SDS011;6170;42.206;24.142;2023-04-03T03:05:26;3.03;;;1.80;;
12214;SDS011;6170;42.206;24.142;2023-04-03T03:07:53;3.70;;;2.10;;
12214;SDS011;6170;42.206;24.142;2023-04-03T03:10:20;2.67;;;1.85;;
12214;SDS011;6170;42.206;24.142;2023-04-03T03:12:48;2.22;;;1.75;;
12214;SDS011;6170;42.206;24.142;2023-04-03T03:15:17;3.05;;;1.70;;
12214;SDS011;6170;42.206;24.142;2023-04-03T03:17:44;2.67;;;1.67;;
12214;SDS011;6170;42.206;24.142;2023-04-03T03:20:12;2.97;;;1.70;;
12214;SDS011;6170;42.206;24.142;2023-04-03T03:22:40;3.15;;;2.00;;
12214;SDS011;6170;42.206;24.142;2023-04-03T03:25:08;2.47;;;1.40;;
12214;SDS011;6170;42.206;24.142;2023-04-03T03:27:35;3.15;;;1.70;;
12214;SDS011;6170;42.206;24.142;2023-04-03T03:30:02;3.78;;;2.30;;
12214;SDS011;6170;42.206;24.142;2023-04-03T03:32:32;3.80;;;2.00;;
12214;SDS011;6170;42.206;24.142;2023-04-03T03:34:59;5.05;;;1.77;;
12214;SDS011;6170;42.206;24.142;2023-04-03T03:37:26;3.08;;;2.00;;
12214;SDS011;6170;42.206;24.142;2023-04-03T03:39:53;3.42;;;1.67;;
12214;SDS011;6170;42.206;24.142;2023-04-03T03:42:20;6.70;;;2.28;;
12214;SDS011;6170;42.206;24.142;2023-04-03T03:44:47;3.75;;;2.00;;
12214;SDS011;6170;42.206;24.142;2023-04-03T03:47:14;3.63;;;1.80;;
12214;SDS011;6170;42.206;24.142;2023-04-03T03:49:42;5.90;;;2.10;;
12214;SDS011;6170;42.206;24.142;2023-04-03T03:52:09;2.90;;;1.58;;
12214;SDS011;6170;42.206;24.142;2023-04-03T03:54:36;3.35;;;1.88;;
12214;SDS011;6170;42.206;24.142;2023-04-03T03:57:04;2.92;;;1.70;;
12214;SDS011;6170;42.206;24.142;2023-04-03T03:59:31;3.58;;;2.00;;
12214;SDS011;6170;42.206;24.142;2023-04-03T04:01:58;3.25;;;1.77;;
12214;SDS011;6170;42.206;24.142;2023-04-03T04:04:25;3.10;;;2.00;;
12214;SDS011;6170;42.206;24.142;2023-04-03T04:06:53;7.10;;;2.10;;
12214;SDS011;6170;42.206;24.142;2023-04-03T04:09:20;2.97;;;1.80;;
12214;SDS011;6170;42.206;24.142;2023-04-03T04:11:48;3.33;;;2.10;;
12214;SDS011;6170;42.206;24.142;2023-04-03T04:14:15;4.45;;;2.10;;
12214;SDS011;6170;42.206;24.142;2023-04-03T04:16:42;3.90;;;2.10;;
12214;SDS011;6170;42.206;24.142;2023-04-03T04:19:09;6.25;;;1.90;;
12214;SDS011;6170;42.206;24.142;2023-04-03T04:21:36;5.40;;;2.20;;
12214;SDS011;6170;42.206;24.142;2023-04-03T04:24:05;4.30;;;1.95;;
12214;SDS011;6170;42.206;24.142;2023-04-03T04:26:32;4.30;;;2.42;;
12214;SDS011;6170;42.206;24.142;2023-04-03T04:28:59;4.18;;;2.30;;
12214;SDS011;6170;42.206;24.142;2023-04-03T04:31:26;5.03;;;2.47;;
12214;SDS011;6170;42.206;24.142;2023-04-03T04:33:53;4.40;;;2.30;;
12214;SDS011;6170;42.206;24.142;2023-04-03T04:36:20;2.75;;;1.90;;
12214;SDS011;6170;42.206;24.142;2023-04-03T04:38:47;4.55;;;2.15;;
12214;SDS011;6170;42.206;24.142;2023-04-03T04:41:19;4.22;;;1.92;;
12214;SDS011;6170;42.206;24.142;2023-04-03T04:43:47;4.82;;;2.17;;
12214;SDS011;6170;42.206;24.142;2023-04-03T04:46:14;2.45;;;1.90;;
12214;SDS011;6170;42.206;24.142;2023-04-03T04:48:41;3.00;;;1.88;;
12214;SDS011;6170;42.206;24.142;2023-04-03T04:51:09;3.90;;;2.00;;
12214;SDS011;6170;42.206;24.142;2023-04-03T04:53:36;3.63;;;1.90;;
12214;SDS011;6170;42.206;24.142;2023-04-03T04:56:03;2.97;;;1.92;;
12214;SDS011;6170;42.206;24.142;2023-04-03T04:58:32;2.75;;;2.00;;
12214;SDS011;6170;42.206;24.142;2023-04-03T05:01:00;12.75;;;2.72;;
12214;SDS011;6170;42.206;24.142;2023-04-03T05:03:28;24.50;;;9.65;;
12214;SDS011;6170;42.206;24.142;2023-04-03T05:05:55;17.67;;;5.78;;
12214;SDS011;6170;42.206;24.142;2023-04-03T05:08:22;7.78;;;4.18;;
12214;SDS011;6170;42.206;24.142;2023-04-03T05:10:49;9.88;;;5.90;;
12214;SDS011;6170;42.206;24.142;2023-04-03T05:13:16;6.25;;;3.70;;
12214;SDS011;6170;42.206;24.142;2023-04-03T05:15:44;5.22;;;3.10;;
12214;SDS011;6170;42.206;24.142;2023-04-03T05:18:11;11.00;;;3.50;;
12214;SDS011;6170;42.206;24.142;2023-04-03T05:20:39;6.50;;;3.20;;
12214;SDS011;6170;42.206;24.142;2023-04-03T05:23:06;7.60;;;3.10;;
12214;SDS011;6170;42.206;24.142;2023-04-03T05:25:33;6.30;;;3.47;;
12214;SDS011;6170;42.206;24.142;2023-04-03T05:28:00;5.05;;;3.38;;
12214;SDS011;6170;42.206;24.142;2023-04-03T05:30:27;6.35;;;3.53;;
12214;SDS011;6170;42.206;24.142;2023-04-03T05:32:55;5.13;;;3.20;;
12214;SDS011;6170;42.206;24.142;2023-04-03T05:35:22;9.75;;;5.00;;
12214;SDS011;6170;42.206;24.142;2023-04-03T05:37:49;29.30;;;17.25;;
12214;SDS011;6170;42.206;24.142;2023-04-03T05:40:16;21.45;;;11.63;;
12214;SDS011;6170;42.206;24.142;2023-04-03T05:42:44;9.98;;;4.47;;
12214;SDS011;6170;42.206;24.142;2023-04-03T05:45:11;4.35;;;3.25;;
12214;SDS011;6170;42.206;24.142;2023-04-03T05:47:38;5.75;;;3.47;;
12214;SDS011;6170;42.206;24.142;2023-04-03T05:50:07;4.50;;;3.03;;
12214;SDS011;6170;42.206;24.142;2023-04-03T05:52:35;5.32;;;3.22;;
12214;SDS011;6170;42.206;24.142;2023-04-03T05:55:05;6.40;;;3.38;;
12214;SDS011;6170;42.206;24.142;2023-04-03T05:57:32;4.47;;;3.33;;
12214;SDS011;6170;42.206;24.142;2023-04-03T05:59:59;6.80;;;3.72;;
12214;SDS011;6170;42.206;24.142;2023-04-03T06:02:26;7.32;;;3.88;;
12214;SDS011;6170;42.206;24.142;2023-04-03T06:04:53;9.35;;;4.82;;
12214;SDS011;6170;42.206;24.142;2023-04-03T06:07:22;13.70;;;4.45;;
12214;SDS011;6170;42.206;24.142;2023-04-03T06:09:53;6.22;;;3.90;;
12214;SDS011;6170;42.206;24.142;2023-04-03T06:12:22;9.88;;;4.82;;
12214;SDS011;6170;42.206;24.142;2023-04-03T06:14:49;10.57;;;5.40;;
12214;SDS011;6170;42.206;24.142;2023-04-03T06:17:17;11.35;;;5.07;;
12214;SDS011;6170;42.206;24.142;2023-04-03T06:19:44;8.40;;;4.70;;
12214;SDS011;6170;42.206;24.142;2023-04-03T06:22:12;8.75;;;5.45;;
12214;SDS011;6170;42.206;24.142;2023-04-03T06:24:40;8.43;;;4.55;;
12214;SDS011;6170;42.206;24.142;2023-04-03T06:27:09;11.70;;;4.80;;
12214;SDS011;6170;42.206;24.142;2023-04-03T06:29:37;13.60;;;6.18;;
12214;SDS011;6170;42.206;24.142;2023-04-03T06:32:04;14.48;;;6.95;;
12214;SDS011;6170;42.206;24.142;2023-04-03T06:34:31;15.50;;;6.80;;
12214;SDS011;6170;42.206;24.142;2023-04-03T06:36:58;12.02;;;5.63;;
12214;SDS011;6170;42.206;24.142;2023-04-03T06:39:25;20.52;;;8.65;;
12214;SDS011;6170;42.206;24.142;2023-04-03T06:41:54;17.75;;;7.20;;
12214;SDS011;6170;42.206;24.142;2023-04-03T06:44:21;17.33;;;7.38;;
12214;SDS011;6170;42.206;24.142;2023-04-03T06:46:48;37.58;;;14.07;;
12214;SDS011;6170;42.206;24.142;2023-04-03T06:49:16;17.52;;;7.72;;
12214;SDS011;6170;42.206;24.142;2023-04-03T06:51:43;37.78;;;14.93;;
12214;SDS011;6170;42.206;24.142;2023-04-03T06:54:10;9.48;;;4.32;;
12214;SDS011;6170;42.206;24.142;2023-04-03T06:56:38;27.90;;;11.10;;
12214;SDS011;6170;42.206;24.142;2023-04-03T06:59:06;21.17;;;7.97;;
12214;SDS011;6170;42.206;24.142;2023-04-03T07:01:33;22.48;;;10.60;;
12214;SDS011;6170;42.206;24.142;2023-04-03T07:04:00;31.88;;;13.05;;
12214;SDS011;6170;42.206;24.142;2023-04-03T07:06:28;13.38;;;5.63;;
12214;SDS011;6170;42.206;24.142;2023-04-03T07:08:56;27.63;;;10.93;;
12214;SDS011;6170;42.206;24.142;2023-04-03T07:11:23;6.32;;;4.07;;
12214;SDS011;6170;42.206;24.142;2023-04-03T07:13:51;5.13;;;3.53;;
12214;SDS011;6170;42.206;24.142;2023-04-03T07:16:19;7.90;;;3.05;;
12214;SDS011;6170;42.206;24.142;2023-04-03T07:18:47;4.30;;;2.75;;
12214;SDS011;6170;42.206;24.142;2023-04-03T07:21:14;4.47;;;2.80;;
12214;SDS011;6170;42.206;24.142;2023-04-03T07:23:41;4.15;;;2.60;;
12214;SDS011;6170;42.206;24.142;2023-04-03T07:26:08;3.08;;;2.35;;
12214;SDS011;6170;42.206;24.142;2023-04-03T07:28:35;5.40;;;2.25;;
12214;SDS011;6170;42.206;24.142;2023-04-03T07:31:04;3.65;;;2.60;;
12214;SDS011;6170;42.206;24.142;2023-04-03T07:33:35;3.92;;;2.65;;
12214;SDS011;6170;42.206;24.142;2023-04-03T07:36:02;3.80;;;2.63;;
12214;SDS011;6170;42.206;24.142;2023-04-03T07:38:32;6.20;;;2.63;;
12214;SDS011;6170;42.206;24.142;2023-04-03T07:40:59;4.68;;;3.00;;
12214;SDS011;6170;42.206;24.142;2023-04-03T07:43:26;4.38;;;2.30;;
12214;SDS011;6170;42.206;24.142;2023-04-03T07:45:53;5.03;;;2.65;;
12214;SDS011;6170;42.206;24.142;2023-04-03T07:48:20;4.43;;;2.80;;
12214;SDS011;6170;42.206;24.142;2023-04-03T07:50:50;3.22;;;2.35;;
12214;SDS011;6170;42.206;24.142;2023-04-03T07:53:17;4.03;;;2.72;;
12214;SDS011;6170;42.206;24.142;2023-04-03T07:55:45;8.15;;;3.20;;
12214;SDS011;6170;42.206;24.142;2023-04-03T07:58:13;5.28;;;3.33;;
12214;SDS011;6170;42.206;24.142;2023-04-03T08:00:44;5.18;;;2.63;;
12214;SDS011;6170;42.206;24.142;2023-04-03T08:03:12;4.57;;;3.28;;
12214;SDS011;6170;42.206;24.142;2023-04-03T08:05:41;5.82;;;2.78;;
12214;SDS011;6170;42.206;24.142;2023-04-03T08:08:11;4.78;;;3.03;;
12214;SDS011;6170;42.206;24.142;2023-04-03T08:10:40;6.55;;;3.20;;
12214;SDS011;6170;42.206;24.142;2023-04-03T08:13:08;6.38;;;2.90;;
12214;SDS011;6170;42.206;24.142;2023-04-03T08:15:36;4.00;;;2.78;;
12214;SDS011;6170;42.206;24.142;2023-04-03T08:18:03;6.68;;;2.95;;
12214;SDS011;6170;42.206;24.142;2023-04-03T08:20:30;5.75;;;3.25;;
12214;SDS011;6170;42.206;24.142;2023-04-03T08:22:57;9.50;;;2.40;;
12214;SDS011;6170;42.206;24.142;2023-04-03T08:25:26;3.63;;;2.63;;
12214;SDS011;6170;42.206;24.142;2023-04-03T08:27:54;4.35;;;2.80;;
12214;SDS011;6170;42.206;24.142;2023-04-03T08:30:21;4.43;;;2.47;;
12214;SDS011;6170;42.206;24.142;2023-04-03T08:32:48;4.47;;;2.20;;
12214;SDS011;6170;42.206;24.142;2023-04-03T08:35:15;5.88;;;2.28;;
12214;SDS011;6170;42.206;24.142;2023-04-03T08:37:42;4.15;;;2.50;;
12214;SDS011;6170;42.206;24.142;2023-04-03T08:40:12;4.45;;;2.80;;
12214;SDS011;6170;42.206;24.142;2023-04-03T08:42:44;3.83;;;2.85;;
12214;SDS011;6170;42.206;24.142;2023-04-03T08:45:19;3.30;;;2.58;;
12214;SDS011;6170;42.206;24.142;2023-04-03T08:47:55;4.82;;;2.90;;
12214;SDS011;6170;42.206;24.142;2023-04-03T08:50:29;4.32;;;2.95;;
12214;SDS011;6170;42.206;24.142;2023-04-03T08:53:00;6.20;;;2.83;;
12214;SDS011;6170;42.206;24.142;2023-04-03T08:55:31;3.08;;;2.35;;
12214;SDS011;6170;42.206;24.142;2023-04-03T08:58:03;3.88;;;2.50;;
12214;SDS011;6170;42.206;24.142;2023-04-03T09:00:33;3.20;;;2.17;;
12214;SDS011;6170;42.206;24.142;2023-04-03T09:03:11;4.60;;;2.20;;
12214;SDS011;6170;42.206;24.142;2023-04-03T09:05:40;2.45;;;1.80;;
12214;SDS011;6170;42.206;24.142;2023-04-03T09:08:14;2.97;;;1.60;;
12214;SDS011;6170;42.206;24.142;2023-04-03T09:10:49;4.10;;;1.73;;
12214;SDS011;6170;42.206;24.142;2023-04-03T09:13:23;4.80;;;1.83;;
12214;SDS011;6170;42.206;24.142;2023-04-03T09:15:56;4.18;;;1.77;;
12214;SDS011;6170;42.206;24.142;2023-04-03T09:18:26;3.42;;;1.92;;
12214;SDS011;6170;42.206;24.142;2023-04-03T09:20:58;3.70;;;2.35;;
12214;SDS011;6170;42.206;24.142;2023-04-03T09:23:33;5.47;;;2.25;;
12214;SDS011;6170;42.206;24.142;2023-04-03T09:26:13;4.50;;;3.53;;
12214;SDS011;6170;42.206;24.142;2023-04-03T09:28:44;5.72;;;3.58;;
12214;SDS011;6170;42.206;24.142;2023-04-03T09:31:15;7.03;;;3.72;;
12214;SDS011;6170;42.206;24.142;2023-04-03T09:33:46;7.50;;;4.00;;
12214;SDS011;6170;42.206;24.142;2023-04-03T09:39:05;5.78;;;3.92;;
12214;SDS011;6170;42.206;24.142;2023-04-03T09:41:35;5.80;;;3.60;;
12214;SDS011;6170;42.206;24.142;2023-04-03T09:44:17;13.45;;;3.50;;
12214;SDS011;6170;42.206;24.142;2023-04-03T09:46:48;5.57;;;3.55;;
12214;SDS011;6170;42.206;24.142;2023-04-03T09:49:16;4.90;;;3.80;;
12214;SDS011;6170;42.206;24.142;2023-04-03T09:51:44;7.93;;;3.80;;
12214;SDS011;6170;42.206;24.142;2023-04-03T09:54:25;5.43;;;3.85;;
12214;SDS011;6170;42.206;24.142;2023-04-03T09:57:07;8.52;;;3.30;;
12214;SDS011;6170;42.206;24.142;2023-04-03T09:59:40;5.97;;;3.13;;
12214;SDS011;6170;42.206;24.142;2023-04-03T10:02:22;3.70;;;2.58;;
12214;SDS011;6170;42.206;24.142;2023-04-03T10:04:57;5.47;;;2.40;;
12214;SDS011;6170;42.206;24.142;2023-04-03T10:07:29;5.63;;;2.78;;
12214;SDS011;6170;42.206;24.142;2023-04-03T10:10:00;4.72;;;3.08;;
12214;SDS011;6170;42.206;24.142;2023-04-03T10:12:29;8.93;;;2.72;;
12214;SDS011;6170;42.206;24.142;2023-04-03T10:14:58;3.20;;;2.47;;
12214;SDS011;6170;42.206;24.142;2023-04-03T10:17:30;4.20;;;3.00;;
12214;SDS011;6170;42.206;24.142;2023-04-03T10:20:06;4.35;;;3.00;;
12214;SDS011;6170;42.206;24.142;2023-04-03T10:22:48;5.10;;;2.88;;
12214;SDS011;6170;42.206;24.142;2023-04-03T10:25:28;4.82;;;2.97;;
12214;SDS011;6170;42.206;24.142;2023-04-03T10:28:03;5.90;;;3.17;;
12214;SDS011;6170;42.206;24.142;2023-04-03T10:30:39;5.63;;;3.58;;
12214;SDS011;6170;42.206;24.142;2023-04-03T10:33:36;6.57;;;2.78;;
12214;SDS011;6170;42.206;24.142;2023-04-03T10:36:17;4.53;;;3.05;;
12214;SDS011;6170;42.206;24.142;2023-04-03T10:38:55;4.32;;;3.17;;
12214;SDS011;6170;42.206;24.142;2023-04-03T10:41:31;5.88;;;3.42;;
12214;SDS011;6170;42.206;24.142;2023-04-03T10:44:09;4.53;;;3.10;;
12214;SDS011;6170;42.206;24.142;2023-04-03T10:46:45;5.03;;;3.13;;
12214;SDS011;6170;42.206;24.142;2023-04-03T10:52:09;5.22;;;3.25;;
12214;SDS011;6170;42.206;24.142;2023-04-03T10:54:45;4.35;;;3.20;;
12214;SDS011;6170;42.206;24.142;2023-04-03T10:57:16;4.87;;;3.10;;
12214;SDS011;6170;42.206;24.142;2023-04-03T10:59:44;4.28;;;2.83;;
12214;SDS011;6170;42.206;24.142;2023-04-03T11:02:17;4.35;;;2.78;;
12214;SDS011;6170;42.206;24.142;2023-04-03T11:04:51;5.03;;;3.40;;
12214;SDS011;6170;42.206;24.142;2023-04-03T11:07:21;8.60;;;3.85;;
12214;SDS011;6170;42.206;24.142;2023-04-03T11:09:52;6.78;;;4.22;;
12214;SDS011;6170;42.206;24.142;2023-04-03T11:12:25;24.30;;;12.95;;
12214;SDS011;6170;42.206;24.142;2023-04-03T11:14:55;19.83;;;10.97;;
12214;SDS011;6170;42.206;24.142;2023-04-03T11:17:27;11.98;;;7.68;;
12214;SDS011;6170;42.206;24.142;2023-04-03T11:19:59;9.07;;;6.10;;
12214;SDS011;6170;42.206;24.142;2023-04-03T11:22:34;6.72;;;4.55;;
12214;SDS011;6170;42.206;24.142;2023-04-03T11:27:41;8.35;;;4.90;;
12214;SDS011;6170;42.206;24.142;2023-04-03T11:30:14;8.23;;;5.65;;
12214;SDS011;6170;42.206;24.142;2023-04-03T11:35:53;8.48;;;5.72;;
12214;SDS011;6170;42.206;24.142;2023-04-03T11:38:26;9.65;;;5.40;;
12214;SDS011;6170;42.206;24.142;2023-04-03T11:40:59;9.57;;;6.63;;
12214;SDS011;6170;42.206;24.142;2023-04-03T11:43:29;14.43;;;6.60;;
12214;SDS011;6170;42.206;24.142;2023-04-03T11:45:58;9.13;;;6.55;;
12214;SDS011;6170;42.206;24.142;2023-04-03T11:51:40;8.77;;;6.65;;
12214;SDS011;6170;42.206;24.142;2023-04-03T12:12:33;7.35;;;5.90;;
12214;SDS011;6170;42.206;24.142;2023-04-03T12:21:17;12.63;;;5.72;;
12214;SDS011;6170;42.206;24.142;2023-04-03T12:24:02;9.00;;;6.38;;
12214;SDS011;6170;42.206;24.142;2023-04-03T12:26:33;8.82;;;5.85;;
12214;SDS011;6170;42.206;24.142;2023-04-03T12:29:10;8.60;;;6.13;;
12214;SDS011;6170;42.206;24.142;2023-04-03T12:31:46;8.45;;;5.68;;
12214;SDS011;6170;42.206;24.142;2023-04-03T12:34:26;11.32;;;7.97;;
12214;SDS011;6170;42.206;24.142;2023-04-03T12:37:07;7.50;;;5.70;;
12214;SDS011;6170;42.206;24.142;2023-04-03T12:39:52;7.82;;;5.35;;
12214;SDS011;6170;42.206;24.142;2023-04-03T12:42:34;6.50;;;5.80;;
12214;SDS011;6170;42.206;24.142;2023-04-03T12:45:17;8.20;;;4.88;;
12214;SDS011;6170;42.206;24.142;2023-04-03T12:47:48;6.10;;;5.20;;
12214;SDS011;6170;42.206;24.142;2023-04-03T12:50:17;12.60;;;7.55;;
12214;SDS011;6170;42.206;24.142;2023-04-03T12:52:49;8.18;;;5.50;;
12214;SDS011;6170;42.206;24.142;2023-04-03T12:57:49;11.13;;;5.95;;
12214;SDS011;6170;42.206;24.142;2023-04-03T13:00:25;6.82;;;5.30;;
12214;SDS011;6170;42.206;24.142;2023-04-03T13:02:56;8.48;;;5.88;;
12214;SDS011;6170;42.206;24.142;2023-04-03T13:05:23;9.10;;;6.60;;
12214;SDS011;6170;42.206;24.142;2023-04-03T13:07:52;11.70;;;7.32;;
12214;SDS011;6170;42.206;24.142;2023-04-03T13:10:24;23.55;;;11.70;;
12214;SDS011;6170;42.206;24.142;2023-04-03T13:12:52;13.13;;;8.48;;
12214;SDS011;6170;42.206;24.142;2023-04-03T13:15:23;12.32;;;8.25;;
12214;SDS011;6170;42.206;24.142;2023-04-03T13:17:51;11.18;;;7.30;;
12214;SDS011;6170;42.206;24.142;2023-04-03T13:20:20;12.80;;;8.05;;
12214;SDS011;6170;42.206;24.142;2023-04-03T13:22:52;11.55;;;7.68;;
12214;SDS011;6170;42.206;24.142;2023-04-03T13:25:23;13.35;;;9.60;;
12214;SDS011;6170;42.206;24.142;2023-04-03T13:27:53;17.52;;;11.70;;
12214;SDS011;6170;42.206;24.142;2023-04-03T13:30:24;21.00;;;11.90;;
12214;SDS011;6170;42.206;24.142;2023-04-03T13:32:54;20.75;;;12.98;;
12214;SDS011;6170;42.206;24.142;2023-04-03T13:35:26;22.67;;;14.63;;
12214;SDS011;6170;42.206;24.142;2023-04-03T13:38:03;27.75;;;16.58;;
12214;SDS011;6170;42.206;24.142;2023-04-03T13:40:33;23.15;;;14.93;;
12214;SDS011;6170;42.206;24.142;2023-04-03T13:43:04;21.83;;;14.75;;
12214;SDS011;6170;42.206;24.142;2023-04-03T13:48:09;69.60;;;43.90;;
12214;SDS011;6170;42.206;24.142;2023-04-03T13:50:52;35.30;;;23.45;;
12214;SDS011;6170;42.206;24.142;2023-04-03T13:53:21;17.02;;;12.68;;
12214;SDS011;6170;42.206;24.142;2023-04-03T13:55:59;16.30;;;10.32;;
12214;SDS011;6170;42.206;24.142;2023-04-03T13:58:33;20.48;;;11.00;;
12214;SDS011;6170;42.206;24.142;2023-04-03T14:01:06;27.02;;;13.88;;
12214;SDS011;6170;42.206;24.142;2023-04-03T14:03:40;20.63;;;12.85;;
12214;SDS011;6170;42.206;24.142;2023-04-03T14:06:10;14.18;;;8.95;;
12214;SDS011;6170;42.206;24.142;2023-04-03T14:08:40;16.90;;;10.43;;
12214;SDS011;6170;42.206;24.142;2023-04-03T14:11:09;19.77;;;12.30;;
12214;SDS011;6170;42.206;24.142;2023-04-03T14:13:40;17.10;;;9.80;;
12214;SDS011;6170;42.206;24.142;2023-04-03T14:16:12;19.67;;;11.27;;
12214;SDS011;6170;42.206;24.142;2023-04-03T14:18:42;21.02;;;11.68;;
12214;SDS011;6170;42.206;24.142;2023-04-03T14:21:10;27.13;;;14.02;;
12214;SDS011;6170;42.206;24.142;2023-04-03T14:23:38;32.38;;;17.25;;
12214;SDS011;6170;42.206;24.142;2023-04-03T14:26:08;21.60;;;12.95;;
12214;SDS011;6170;42.206;24.142;2023-04-03T14:28:38;45.03;;;20.45;;
12214;SDS011;6170;42.206;24.142;2023-04-03T14:31:06;35.60;;;18.55;;
12214;SDS011;6170;42.206;24.142;2023-04-03T14:33:34;36.88;;;20.52;;
12214;SDS011;6170;42.206;24.142;2023-04-03T14:36:05;29.55;;;17.17;;
12214;SDS011;6170;42.206;24.142;2023-04-03T14:38:38;29.65;;;16.50;;
12214;SDS011;6170;42.206;24.142;2023-04-03T14:41:06;28.63;;;16.58;;
12214;SDS011;6170;42.206;24.142;2023-04-03T14:43:33;43.72;;;20.27;;
12214;SDS011;6170;42.206;24.142;2023-04-03T14:46:00;33.08;;;17.48;;
12214;SDS011;6170;42.206;24.142;2023-04-03T14:48:28;29.00;;;15.80;;
12214;SDS011;6170;42.206;24.142;2023-04-03T14:50:57;45.78;;;20.58;;
12214;SDS011;6170;42.206;24.142;2023-04-03T14:53:25;36.78;;;20.85;;
12214;SDS011;6170;42.206;24.142;2023-04-03T14:55:54;43.03;;;21.50;;
12214;SDS011;6170;42.206;24.142;2023-04-03T14:58:22;45.83;;;22.15;;
12214;SDS011;6170;42.206;24.142;2023-04-03T15:00:49;68.72;;;27.30;;
12214;SDS011;6170;42.206;24.142;2023-04-03T15:03:17;69.63;;;26.65;;
12214;SDS011;6170;42.206;24.142;2023-04-03T15:05:46;53.30;;;22.00;;
12214;SDS011;6170;42.206;24.142;2023-04-03T15:08:20;38.72;;;20.13;;
12214;SDS011;6170;42.206;24.142;2023-04-03T15:10:49;23.83;;;15.88;;
12214;SDS011;6170;42.206;24.142;2023-04-03T15:13:18;31.67;;;17.02;;
12214;SDS011;6170;42.206;24.142;2023-04-03T15:15:46;28.50;;;16.17;;
12214;SDS011;6170;42.206;24.142;2023-04-03T15:18:15;25.95;;;17.42;;
12214;SDS011;6170;42.206;24.142;2023-04-03T15:20:44;19.77;;;14.13;;
12214;SDS011;6170;42.206;24.142;2023-04-03T15:23:12;17.05;;;12.05;;
12214;SDS011;6170;42.206;24.142;2023-04-03T15:25:42;16.55;;;12.43;;
12214;SDS011;6170;42.206;24.142;2023-04-03T15:28:13;22.75;;;15.52;;
12214;SDS011;6170;42.206;24.142;2023-04-03T15:30:45;24.10;;;16.30;;
12214;SDS011;6170;42.206;24.142;2023-04-03T15:33:13;22.30;;;14.93;;
12214;SDS011;6170;42.206;24.142;2023-04-03T15:35:40;26.60;;;18.42;;
12214;SDS011;6170;42.206;24.142;2023-04-03T15:38:08;24.90;;;15.27;;
12214;SDS011;6170;42.206;24.142;2023-04-03T15:40:36;15.88;;;12.02;;
12214;SDS011;6170;42.206;24.142;2023-04-03T15:43:06;19.05;;;12.48;;